Time;durP1;ratioP1;P1;durP2;ratioP2;P2;SDS_P1;SDS_P2;PMS_P1;PMS_P2;Temp;Humidity;BMP_temperature;BMP_pressure;BME280_temperature;BME280_humidity;BME280_pressure;Samples;Min_cycle;Max_cycle;Signal;HPM_P1;HPM_P2
2021/08/06 00:02:00;;;;;;;1.43;0.30;;;;;;;14.80;100.00;95119.45;127738;1096;50876;-86
2021/08/06 00:04:31;;;;;;;0.48;0.48;;;;;;;14.77;100.00;95106.77;127635;1096;50822;-85
2021/08/06 00:07:03;;;;;;;0.35;0.30;;;;;;;14.77;100.00;95111.33;127687;1095;48308;-85
2021/08/06 00:09:38;;;;;;;0.40;0.40;;;;;;;14.77;100.00;95109.43;127635;1096;48459;-85
2021/08/06 00:12:10;;;;;;;0.60;0.40;;;;;;;14.76;100.00;95102.55;127735;1095;26302;-85
2021/08/06 00:14:42;;;;;;;0.30;0.30;;;;;;;14.75;100.00;95106.33;127736;1096;40137;-85
2021/08/06 00:17:13;;;;;;;0.30;0.30;;;;;;;14.73;100.00;95113.91;127703;1096;26339;-85
2021/08/06 00:19:45;;;;;;;0.70;0.43;;;;;;;14.74;100.00;95120.02;127661;1096;24158;-86
2021/08/06 00:22:16;;;;;;;0.30;0.30;;;;;;;14.71;100.00;95126.81;127770;1096;45856;-85
2021/08/06 00:24:47;;;;;;;0.85;0.48;;;;;;;14.72;100.00;95132.92;127648;1096;23435;-85
2021/08/06 00:27:18;;;;;;;0.20;0.20;;;;;;;14.71;100.00;95121.48;127733;1096;52785;-85
2021/08/06 00:29:50;;;;;;;0.40;0.40;;;;;;;14.72;100.00;95128.36;127644;1096;52248;-85
2021/08/06 00:32:21;;;;;;;0.50;0.50;;;;;;;14.71;100.00;95132.15;127621;1096;24536;-85
2021/08/06 00:34:52;;;;;;;0.30;0.30;;;;;;;14.72;100.00;95128.36;127773;1096;49890;-85
2021/08/06 00:37:24;;;;;;;0.65;0.35;;;;;;;14.71;100.00;95126.03;127713;1095;27608;-85
2021/08/06 00:39:55;;;;;;;0.73;0.53;;;;;;;14.71;100.00;95131.38;127834;1096;83554;-85
2021/08/06 00:42:26;;;;;;;0.38;0.38;;;;;;;14.70;100.00;95130.59;127771;1095;49186;-85
2021/08/06 00:44:58;;;;;;;0.58;0.30;;;;;;;14.71;100.00;95132.15;127726;1096;22835;-84
2021/08/06 00:47:30;;;;;;;0.30;0.30;;;;;;;14.71;100.00;95128.70;127566;1096;48646;-85
2021/08/06 00:50:02;;;;;;;0.43;0.43;;;;;;;14.69;100.00;95129.05;127740;1096;27575;-84
2021/08/06 00:52:34;;;;;;;0.25;0.25;;;;;;;14.66;100.00;95129.73;127642;1096;52565;-84
2021/08/06 00:55:15;;;;;;;0.30;0.30;;;;;;;14.63;100.00;95124.28;127609;1096;57529;-85
2021/08/06 00:57:46;;;;;;;1.10;0.60;;;;;;;14.59;100.00;95124.19;127673;1096;23974;-85
2021/08/06 01:00:18;;;;;;;0.93;0.60;;;;;;;14.53;100.00;95131.67;127619;1095;42279;-85
2021/08/06 01:02:57;;;;;;;0.60;0.60;;;;;;;14.52;100.00;95134.67;127664;1096;29238;-85
2021/08/06 01:05:32;;;;;;;0.83;0.63;;;;;;;14.46;100.00;95120.79;127892;1095;47598;-83
2021/08/06 01:08:12;;;;;;;0.70;0.70;;;;;;;14.45;100.00;95142.47;127752;1096;51109;-85
2021/08/06 01:10:48;;;;;;;0.58;0.38;;;;;;;14.44;100.00;95144.36;127761;1096;44859;-85
2021/08/06 01:13:26;;;;;;;0.78;0.50;;;;;;;14.43;100.00;95145.44;127537;1096;51457;-84
2021/08/06 01:16:01;;;;;;;0.58;0.58;;;;;;;14.43;100.00;95155.33;127731;1096;39066;-81
2021/08/06 01:18:35;;;;;;;1.10;0.80;;;;;;;14.42;100.00;95151.11;127594;1096;24153;-84
2021/08/06 01:21:11;;;;;;;0.45;0.30;;;;;;;14.40;100.00;95142.69;127774;1096;49739;-83
2021/08/06 01:23:44;;;;;;;0.85;0.70;;;;;;;14.38;100.00;95153.69;127762;1096;28311;-84
2021/08/06 01:26:20;;;;;;;0.88;0.60;;;;;;;14.34;100.00;95150.13;127690;1096;26868;-84
2021/08/06 01:28:53;;;;;;;1.10;0.80;;;;;;;14.32;100.00;95152.35;127623;1095;52847;-84
2021/08/06 01:31:28;;;;;;;0.80;0.80;;;;;;;14.30;100.00;95151.14;127845;1096;29599;-83
2021/08/06 01:34:00;;;;;;;1.03;0.93;;;;;;;14.29;100.00;95154.92;127822;1096;22863;-83
2021/08/06 01:36:31;;;;;;;1.03;0.90;;;;;;;14.28;100.00;95150.70;127737;1096;39266;-84
2021/08/06 01:39:03;;;;;;;1.18;1.08;;;;;;;14.25;100.00;95150.27;127766;1096;28968;-84
2021/08/06 01:41:44;;;;;;;1.05;0.85;;;;;;;14.22;100.00;95150.95;127750;1096;25590;-84
2021/08/06 01:44:21;;;;;;;0.98;0.88;;;;;;;14.21;100.00;95154.70;127762;1096;24940;-84
2021/08/06 01:46:59;;;;;;;1.15;0.95;;;;;;;14.17;100.00;95153.83;127729;1095;47654;-84
2021/08/06 01:49:36;;;;;;;1.10;1.00;;;;;;;14.17;100.00;95161.83;127702;1095;47436;-83
2021/08/06 01:52:12;;;;;;;1.00;0.90;;;;;;;14.14;100.00;95170.50;127599;1096;55579;-84
2021/08/06 01:54:54;;;;;;;0.90;0.90;;;;;;;14.14;100.00;95175.83;127682;1096;51154;-84
2021/08/06 01:57:28;;;;;;;0.73;0.70;;;;;;;14.16;100.00;95164.83;127757;1096;52471;-83
2021/08/06 02:00:01;;;;;;;1.05;0.78;;;;;;;14.15;100.00;95172.05;127750;1095;45454;-83
2021/08/06 02:02:33;;;;;;;0.55;0.53;;;;;;;14.16;100.00;95180.82;127728;1096;58488;-83
2021/08/06 02:05:06;;;;;;;1.30;0.60;;;;;;;14.16;100.00;95167.49;127628;1096;52962;-83
2021/08/06 02:07:37;;;;;;;0.50;0.45;;;;;;;14.17;100.00;95177.81;127701;1096;51729;-84
2021/08/06 02:10:10;;;;;;;0.37;0.33;;;;;;;14.17;100.00;95180.48;127663;1095;26556;-84
2021/08/06 02:12:42;;;;;;;0.65;0.40;;;;;;;14.16;100.00;95189.59;127735;1096;26421;-84
2021/08/06 02:15:15;;;;;;;0.47;0.43;;;;;;;14.18;100.00;95173.27;127689;1096;22788;-83
2021/08/06 02:17:48;;;;;;;0.48;0.40;;;;;;;14.16;100.00;95159.50;127827;1096;24073;-84
2021/08/06 02:20:20;;;;;;;0.90;0.30;;;;;;;14.13;100.00;95186.83;127636;1096;47536;-84
2021/08/06 02:22:54;;;;;;;1.53;0.30;;;;;;;14.12;100.00;95174.61;127692;1096;50719;-84
2021/08/06 02:25:26;;;;;;;0.83;0.60;;;;;;;14.10;100.00;95176.84;127731;1096;24378;-84
2021/08/06 02:27:59;;;;;;;0.58;0.50;;;;;;;14.10;100.00;95188.28;127686;1096;24739;-82
2021/08/06 02:30:33;;;;;;;0.40;0.30;;;;;;;14.11;100.00;95200.48;127692;1095;23796;-84
2021/08/06 02:33:04;;;;;;;0.60;0.60;;;;;;;14.13;100.00;95198.27;127636;1096;42608;-83
2021/08/06 02:35:36;;;;;;;0.60;0.60;;;;;;;14.10;100.00;95198.94;127614;1096;43514;-83
2021/08/06 02:38:07;;;;;;;1.00;0.80;;;;;;;14.06;100.00;95202.59;127759;1096;24776;-84
2021/08/06 02:40:39;;;;;;;0.67;0.63;;;;;;;14.04;100.00;95200.26;127758;1095;66714;-84
2021/08/06 02:43:11;;;;;;;1.10;0.60;;;;;;;13.98;100.00;95190.95;127790;1096;22838;-84
2021/08/06 02:45:42;;;;;;;0.75;0.75;;;;;;;13.93;100.00;95189.30;127644;1096;33356;-84
2021/08/06 02:48:13;;;;;;;0.98;0.85;;;;;;;13.92;100.00;95192.27;127665;1096;50150;-84
2021/08/06 02:50:45;;;;;;;1.10;1.00;;;;;;;13.90;100.00;95197.16;127687;1096;54365;-84
2021/08/06 02:53:16;;;;;;;2.10;0.95;;;;;;;13.88;100.00;95183.39;127718;1096;24211;-84
2021/08/06 02:55:47;;;;;;;1.38;1.15;;;;;;;13.85;100.00;95200.83;127659;1096;45976;-83
2021/08/06 02:58:20;;;;;;;1.33;1.23;;;;;;;13.83;100.00;95195.06;127728;1095;22854;-83
2021/08/06 03:00:51;;;;;;;1.33;1.23;;;;;;;13.79;100.00;95188.05;127621;1096;50226;-83
2021/08/06 03:03:23;;;;;;;1.65;1.55;;;;;;;13.78;100.00;95197.92;127781;1096;44281;-84
2021/08/06 03:05:54;;;;;;;1.63;1.50;;;;;;;13.76;100.00;95197.48;127680;1095;25156;-83
2021/08/06 03:08:25;;;;;;;1.25;1.15;;;;;;;13.76;100.00;95204.70;127701;1096;53570;-84
2021/08/06 03:10:56;;;;;;;1.48;1.30;;;;;;;13.75;100.00;95195.16;127655;1096;54129;-83
2021/08/06 03:13:28;;;;;;;1.40;1.30;;;;;;;13.75;100.00;95203.92;127759;1096;41257;-82
2021/08/06 03:15:59;;;;;;;1.40;1.30;;;;;;;13.75;100.00;95205.81;127709;1096;51834;-83
2021/08/06 03:18:30;;;;;;;1.25;1.03;;;;;;;13.76;100.00;95205.47;127696;1095;56535;-83
2021/08/06 03:21:02;;;;;;;1.93;1.35;;;;;;;13.76;100.00;95207.36;127808;1095;28508;-83
2021/08/06 03:23:34;;;;;;;2.13;1.73;;;;;;;13.75;100.00;95195.94;127711;1096;45199;-84
2021/08/06 03:26:05;;;;;;;1.20;1.10;;;;;;;13.75;100.00;95211.14;127747;1096;50373;-85
2021/08/06 03:28:36;;;;;;;1.65;1.25;;;;;;;13.74;100.00;95202.38;127579;1096;38027;-83
2021/08/06 03:31:08;;;;;;;1.85;1.65;;;;;;;13.73;100.00;95208.03;127644;1096;22784;-83
2021/08/06 03:33:39;;;;;;;1.68;1.58;;;;;;;13.73;100.00;95213.36;127617;1095;33426;-84
2021/08/06 03:36:12;;;;;;;1.30;1.20;;;;;;;13.72;100.00;95207.25;127681;1096;43266;-83
2021/08/06 03:38:43;;;;;;;1.50;1.15;;;;;;;13.71;100.00;95211.03;127674;1096;50226;-84
2021/08/06 03:41:14;;;;;;;2.35;1.40;;;;;;;13.70;100.00;95219.36;127673;1096;52452;-84
2021/08/06 03:43:46;;;;;;;1.30;1.20;;;;;;;13.69;100.00;95223.91;127620;1096;23894;-84
2021/08/06 03:46:17;;;;;;;1.40;1.15;;;;;;;13.66;100.00;95212.03;127661;1096;23283;-83
2021/08/06 03:48:48;;;;;;;1.55;1.20;;;;;;;13.66;100.00;95222.69;127585;1097;27440;-84
2021/08/06 03:51:20;;;;;;;1.10;1.00;;;;;;;13.64;100.00;95224.10;127609;1096;48740;-83
2021/08/06 03:53:51;;;;;;;1.48;1.20;;;;;;;13.61;100.00;95230.09;127614;1096;51595;-84
2021/08/06 03:56:22;;;;;;;0.85;0.85;;;;;;;13.61;100.00;95228.20;127594;1096;24592;-83
2021/08/06 03:58:54;;;;;;;0.65;0.63;;;;;;;13.59;100.00;95225.10;127636;1095;45361;-83
2021/08/06 04:01:25;;;;;;;0.90;0.73;;;;;;;13.60;100.00;95228.55;127731;1096;22843;-84
2021/08/06 04:03:56;;;;;;;0.60;0.60;;;;;;;13.59;100.00;95238.41;127725;1096;26196;-84
2021/08/06 04:06:27;;;;;;;0.50;0.50;;;;;;;13.61;100.00;95249.52;127783;1095;22802;-84
2021/08/06 04:08:59;;;;;;;0.60;0.40;;;;;;;13.62;100.00;95247.63;127624;1096;54494;-83
2021/08/06 04:11:31;;;;;;;0.30;0.30;;;;;;;13.60;100.00;95253.28;127694;1095;32665;-84
2021/08/06 04:14:02;;;;;;;1.20;0.45;;;;;;;13.60;100.00;95239.20;127714;1096;26538;-84
2021/08/06 04:16:33;;;;;;;0.40;0.38;;;;;;;13.60;100.00;95261.27;127646;1096;23584;-84
2021/08/06 04:19:05;;;;;;;0.65;0.40;;;;;;;13.58;100.00;95244.86;127618;1096;26483;-84
2021/08/06 04:21:36;;;;;;;0.40;0.40;;;;;;;13.56;100.00;95263.05;127704;1096;26644;-84
2021/08/06 04:24:08;;;;;;;0.50;0.50;;;;;;;13.54;100.00;95261.83;127717;1096;27553;-84
2021/08/06 04:26:40;;;;;;;0.70;0.35;;;;;;;13.54;100.00;95267.92;127696;1096;27864;-85
2021/08/06 04:29:11;;;;;;;0.43;0.40;;;;;;;13.53;100.00;95266.38;127632;1096;24904;-84
2021/08/06 04:31:42;;;;;;;0.30;0.30;;;;;;;13.54;100.00;95267.92;127602;1096;30108;-83
2021/08/06 04:34:13;;;;;;;2.13;0.33;;;;;;;13.52;100.00;95280.80;127575;1095;24886;-85
2021/08/06 04:36:45;;;;;;;0.70;0.30;;;;;;;13.56;100.00;95280.91;127520;1096;35996;-84
2021/08/06 04:39:16;;;;;;;0.10;0.10;;;;;;;13.59;100.00;95277.58;127636;1095;23785;-84
2021/08/06 04:41:49;;;;;;;0.20;0.10;;;;;;;13.60;100.00;95281.80;127613;1096;48390;-84
2021/08/06 04:44:21;;;;;;;0.20;0.18;;;;;;;13.58;100.00;95290.13;127732;1096;26462;-84
2021/08/06 04:46:53;;;;;;;1.35;0.20;;;;;;;13.55;100.00;95288.13;127619;1096;60038;-84
2021/08/06 04:49:24;;;;;;;0.33;0.20;;;;;;;13.51;100.00;95287.23;127726;1095;44538;-83
2021/08/06 04:51:56;;;;;;;0.80;0.33;;;;;;;13.49;100.00;95294.74;127690;1095;24763;-83
2021/08/06 04:54:27;;;;;;;0.30;0.20;;;;;;;13.47;99.98;95277.55;127753;1095;25983;-84
2021/08/06 04:56:59;;;;;;;0.40;0.40;;;;;;;13.45;99.64;95309.83;127584;1096;39406;-82
2021/08/06 04:59:30;;;;;;;0.65;0.50;;;;;;;13.44;99.88;95305.61;127517;1095;25675;-84
2021/08/06 05:02:02;;;;;;;0.38;0.38;;;;;;;13.44;100.00;95305.61;127634;1095;23729;-83
2021/08/06 05:04:33;;;;;;;0.43;0.37;;;;;;;13.41;99.82;95303.61;127652;1096;68968;-84
2021/08/06 05:07:05;;;;;;;0.80;0.55;;;;;;;13.40;100.00;95306.59;127690;1095;29482;-84
2021/08/06 05:09:36;;;;;;;1.75;0.40;;;;;;;13.39;100.00;95321.80;127656;1096;35775;-85
2021/08/06 05:12:08;;;;;;;0.25;0.23;;;;;;;13.42;100.00;95313.15;127622;1094;46046;-84
2021/08/06 05:14:40;;;;;;;0.65;0.50;;;;;;;13.49;100.00;95321.37;127660;1096;25146;-84
2021/08/06 05:17:11;;;;;;;0.40;0.40;;;;;;;13.52;100.00;95312.75;127658;1095;82521;-83
2021/08/06 05:19:43;;;;;;;0.30;0.30;;;;;;;13.54;100.00;95323.84;127697;1095;28306;-84
2021/08/06 05:22:14;;;;;;;0.50;0.30;;;;;;;13.58;100.00;95324.73;127571;1096;23057;-85
2021/08/06 05:24:46;;;;;;;0.18;0.18;;;;;;;13.60;100.00;95332.39;127537;1097;27408;-84
2021/08/06 05:27:17;;;;;;;0.30;0.30;;;;;;;13.60;99.76;95324.41;127748;1095;25904;-84
2021/08/06 05:29:48;;;;;;;0.20;0.20;;;;;;;13.61;99.84;95331.28;127622;1096;24996;-85
2021/08/06 05:32:20;;;;;;;0.20;0.10;;;;;;;13.61;99.69;95326.73;127647;1096;25200;-85
2021/08/06 05:34:51;;;;;;;0.20;0.20;;;;;;;13.61;99.60;95326.73;127648;1096;32119;-84
2021/08/06 05:37:23;;;;;;;0.20;0.10;;;;;;;13.61;99.40;95324.08;127801;1096;22967;-84
2021/08/06 05:39:54;;;;;;;0.30;0.30;;;;;;;13.56;99.23;95345.59;127678;1095;23441;-84
2021/08/06 05:42:26;;;;;;;0.20;0.18;;;;;;;13.53;99.28;95335.61;127653;1096;25380;-84
2021/08/06 05:44:57;;;;;;;0.13;0.10;;;;;;;13.51;99.20;95337.81;127575;1095;23944;-84
2021/08/06 05:47:29;;;;;;;0.40;0.20;;;;;;;13.53;99.48;95346.25;127660;1095;23632;-83
2021/08/06 05:50:00;;;;;;;0.28;0.20;;;;;;;13.55;99.31;95351.25;127589;1096;29380;-84
2021/08/06 05:52:31;;;;;;;0.23;0.18;;;;;;;13.54;99.08;95353.13;127601;1096;27120;-84
2021/08/06 05:55:03;;;;;;;0.08;0.05;;;;;;;13.52;99.29;95358.02;127570;1096;24214;-83
2021/08/06 05:57:34;;;;;;;0.55;0.20;;;;;;;13.52;99.37;95350.02;127596;1096;25305;-85
2021/08/06 06:00:07;;;;;;;0.10;0.10;;;;;;;13.54;99.34;95355.02;127621;1095;22809;-83
2021/08/06 06:02:39;;;;;;;0.20;0.20;;;;;;;13.53;99.15;95361.45;127595;1096;24510;-83
2021/08/06 06:05:11;;;;;;;0.20;0.20;;;;;;;13.51;99.16;95368.96;127592;1096;31963;-83
2021/08/06 06:07:46;;;;;;;0.20;0.20;;;;;;;13.50;99.16;95378.84;127644;1095;26255;-83
2021/08/06 06:10:21;;;;;;;0.30;0.30;;;;;;;13.48;99.37;95373.06;127701;1096;27433;-84
2021/08/06 06:12:54;;;;;;;1.60;0.53;;;;;;;13.49;99.36;95363.97;127728;1095;34844;-83
2021/08/06 06:15:26;;;;;;;0.90;0.40;;;;;;;13.50;99.38;95378.84;127815;1096;25813;-82
2021/08/06 06:17:57;;;;;;;0.33;0.33;;;;;;;13.55;99.33;95370.66;127844;1096;27175;-84
2021/08/06 06:20:28;;;;;;;0.30;0.30;;;;;;;13.60;99.47;95381.11;127756;1096;26937;-83
2021/08/06 06:23:00;;;;;;;0.30;0.30;;;;;;;13.62;99.29;95378.89;127766;1096;22866;-82
2021/08/06 06:25:32;;;;;;;0.40;0.25;;;;;;;13.66;99.34;95377.15;127796;1096;34305;-83
2021/08/06 06:28:05;;;;;;;0.20;0.20;;;;;;;13.66;98.94;95382.48;127612;1096;44395;-83
2021/08/06 06:30:37;;;;;;;0.28;0.20;;;;;;;13.67;98.75;95369.94;127785;1096;49954;-83
2021/08/06 06:33:08;;;;;;;0.28;0.28;;;;;;;13.63;98.58;95375.12;127547;1096;52345;-83
2021/08/06 06:35:40;;;;;;;0.45;0.30;;;;;;;13.64;98.82;95366.02;126228;1096;1917718;-83
2021/08/06 06:38:11;;;;;;;0.30;0.20;;;;;;;13.64;98.67;95379.34;127829;1095;25862;-83
2021/08/06 06:40:43;;;;;;;0.40;0.18;;;;;;;13.69;99.07;95372.27;127712;1095;27612;-83
2021/08/06 06:43:14;;;;;;;0.20;0.20;;;;;;;13.76;99.05;95383.16;127822;1095;30869;-84
2021/08/06 06:45:46;;;;;;;0.40;0.20;;;;;;;13.86;99.22;95390.75;127664;1096;26452;-84
2021/08/06 06:48:17;;;;;;;0.15;0.15;;;;;;;13.92;99.06;95387.53;127793;1096;27889;-83
2021/08/06 06:50:48;;;;;;;0.05;0.05;;;;;;;13.95;99.02;95389.56;127831;1096;25649;-83
2021/08/06 06:53:20;;;;;;;0.10;0.10;;;;;;;13.99;98.97;95384.34;127875;1096;23755;-83
2021/08/06 06:55:51;;;;;;;0.30;0.20;;;;;;;14.02;98.81;95391.67;127818;1096;26776;-82
2021/08/06 06:58:22;;;;;;;0.10;0.10;;;;;;;14.06;98.36;95397.12;127741;1096;26935;-84
2021/08/06 07:00:54;;;;;;;0.50;0.20;;;;;;;14.06;98.41;95389.90;127833;1095;24720;-83
2021/08/06 07:03:26;;;;;;;0.38;0.20;;;;;;;14.05;98.28;95403.56;127877;1096;23655;-83
2021/08/06 07:05:57;;;;;;;0.20;0.20;;;;;;;14.03;98.04;95411.88;127828;1096;25148;-84
2021/08/06 07:08:29;;;;;;;0.25;0.23;;;;;;;14.03;97.96;95427.09;127741;1096;26358;-83
2021/08/06 07:11:00;;;;;;;0.93;0.40;;;;;;;14.06;97.79;95416.55;121181;1096;5489561;-83
2021/08/06 07:13:31;;;;;;;0.40;0.40;;;;;;;13.98;96.35;95419.31;127703;1096;25901;-83
2021/08/06 07:16:03;;;;;;;0.90;0.40;;;;;;;13.95;96.77;95418.09;127813;1096;30086;-83
2021/08/06 07:18:34;;;;;;;0.48;0.38;;;;;;;14.18;96.45;95419.25;127810;1096;48258;-83
2021/08/06 07:21:10;;;;;;;0.30;0.30;;;;;;;14.59;95.49;95396.23;127712;1095;24688;-84
2021/08/06 07:23:42;;;;;;;0.30;0.30;;;;;;;14.84;93.95;95408.47;127770;1096;27933;-84
2021/08/06 07:26:13;;;;;;;0.20;0.20;;;;;;;14.78;92.26;95420.48;127734;1096;27728;-84
2021/08/06 07:28:44;;;;;;;0.40;0.40;;;;;;;14.68;92.97;95404.14;127727;1096;23948;-83
2021/08/06 07:31:16;;;;;;;0.30;0.30;;;;;;;14.54;93.15;95421.24;127771;1095;25107;-83
2021/08/06 07:33:47;;;;;;;0.40;0.40;;;;;;;14.41;93.70;95427.64;127676;1096;26143;-83
2021/08/06 07:36:21;;;;;;;0.60;0.50;;;;;;;14.33;94.39;95431.17;127789;1096;29117;-83
2021/08/06 07:38:52;;;;;;;0.43;0.43;;;;;;;14.35;94.93;95433.50;127822;1096;24089;-83
2021/08/06 07:41:24;;;;;;;0.60;0.40;;;;;;;14.30;95.23;95439.05;127767;1095;27196;-83
2021/08/06 07:43:55;;;;;;;0.80;0.80;;;;;;;14.21;95.25;95450.57;127892;1096;23236;-84
2021/08/06 07:46:26;;;;;;;0.60;0.60;;;;;;;14.11;95.23;95445.67;127858;1096;23605;-83
2021/08/06 07:48:58;;;;;;;1.00;0.90;;;;;;;14.06;95.62;95464.52;127715;1096;23656;-83
2021/08/06 07:51:29;;;;;;;0.55;0.53;;;;;;;14.00;95.44;95454.41;127804;1096;27035;-83
2021/08/06 07:54:02;;;;;;;0.70;0.70;;;;;;;13.98;95.85;95454.73;127775;1095;22816;-82
2021/08/06 07:56:42;;;;;;;1.63;0.70;;;;;;;13.93;95.57;95462.91;127769;1096;32980;-83
2021/08/06 07:59:15;;;;;;;0.70;0.70;;;;;;;13.85;95.42;95463.78;127793;1096;26015;-84
2021/08/06 08:01:46;;;;;;;1.20;0.90;;;;;;;13.83;95.10;95466.77;127719;1096;25790;-83
2021/08/06 08:04:18;;;;;;;1.13;1.00;;;;;;;13.80;95.06;95456.78;127715;1095;29775;-83
2021/08/06 08:06:49;;;;;;;0.80;0.80;;;;;;;13.77;95.03;95467.28;127772;1096;25717;-85
2021/08/06 08:09:21;;;;;;;1.28;0.90;;;;;;;13.77;95.40;95478.72;127927;1096;29604;-84
2021/08/06 08:11:52;;;;;;;1.18;1.03;;;;;;;13.76;95.49;95466.50;128067;1096;26281;-84
2021/08/06 08:14:24;;;;;;;1.18;1.08;;;;;;;13.74;95.80;95462.61;128135;1096;22810;-84
2021/08/06 08:16:56;;;;;;;1.50;1.40;;;;;;;13.72;95.94;95470.16;128121;1095;29779;-82
2021/08/06 08:19:27;;;;;;;1.65;1.18;;;;;;;13.70;96.32;95473.15;128089;1095;22812;-83
2021/08/06 08:21:59;;;;;;;1.85;1.60;;;;;;;13.69;96.61;95471.59;128128;1095;25375;-83
2021/08/06 08:24:30;;;;;;;1.93;1.58;;;;;;;13.69;96.79;95476.92;127947;1095;22997;-82
2021/08/06 08:27:03;;;;;;;2.58;2.03;;;;;;;13.73;96.91;95469.05;128001;1094;23638;-84
2021/08/06 08:29:34;;;;;;;2.50;2.00;;;;;;;13.72;96.85;95476.27;127725;1096;51229;-83
2021/08/06 08:32:07;;;;;;;2.78;2.00;;;;;;;13.69;96.92;95482.25;127823;1095;40804;-83
2021/08/06 08:34:38;;;;;;;2.35;2.05;;;;;;;13.69;97.16;95486.80;127902;1096;64125;-83
2021/08/06 08:37:10;;;;;;;2.90;1.85;;;;;;;13.69;97.55;95481.47;127878;1095;52607;-83
2021/08/06 08:39:42;;;;;;;2.10;1.88;;;;;;;13.69;97.71;95489.45;127868;1094;32400;-84
2021/08/06 08:42:14;;;;;;;2.20;2.00;;;;;;;13.66;97.71;95496.22;127843;1095;53164;-83
2021/08/06 08:44:46;;;;;;;2.13;1.93;;;;;;;13.64;98.08;95498.40;127687;1096;56037;-83
2021/08/06 08:47:21;;;;;;;2.90;2.45;;;;;;;13.61;98.05;95507.82;127754;1096;42181;-83
2021/08/06 08:49:54;;;;;;;3.00;2.70;;;;;;;13.60;98.45;95506.27;127680;1096;55935;-85
2021/08/06 08:52:26;;;;;;;3.20;2.90;;;;;;;13.59;98.52;95518.02;127862;1096;25932;-84
2021/08/06 08:54:58;;;;;;;2.10;2.00;;;;;;;13.59;98.12;95503.92;127831;1096;53204;-83
2021/08/06 08:57:30;;;;;;;2.98;2.68;;;;;;;13.58;97.90;95516.47;127770;1096;55869;-83
2021/08/06 09:00:01;;;;;;;3.40;3.03;;;;;;;13.60;97.66;95518.80;127863;1096;25842;-83
2021/08/06 09:02:33;;;;;;;2.88;2.58;;;;;;;13.64;97.68;95523.14;127762;1095;63672;-84
2021/08/06 09:05:14;;;;;;;3.98;2.73;;;;;;;13.71;97.92;95524.53;127728;1096;27384;-84
2021/08/06 09:07:45;;;;;;;2.85;2.63;;;;;;;13.76;97.65;95522.45;128003;1096;29442;-84
2021/08/06 09:10:19;;;;;;;3.20;2.20;;;;;;;13.82;97.72;95528.38;127679;1096;26550;-83
2021/08/06 09:12:54;;;;;;;3.00;2.70;;;;;;;13.88;97.89;95527.06;127707;1096;28503;-83
2021/08/06 09:15:47;;;;;;;3.60;3.20;;;;;;;13.85;97.49;95533.83;128055;1096;29364;-84
2021/08/06 09:18:40;;;;;;;4.13;3.15;;;;;;;13.86;97.63;95537.27;127798;1095;30257;-82
2021/08/06 09:21:22;;;;;;;3.13;2.85;;;;;;;13.90;97.80;95524.85;127734;1095;26309;-82
2021/08/06 09:23:58;;;;;;;3.23;2.93;;;;;;;13.94;97.43;95536.44;127715;1096;24879;-83
2021/08/06 09:26:40;;;;;;;4.00;3.25;;;;;;;13.99;97.25;95548.78;127740;1096;43988;-83
2021/08/06 09:29:14;;;;;;;4.40;3.33;;;;;;;14.00;97.54;95540.45;127836;1096;25035;-83
2021/08/06 09:31:56;;;;;;;4.88;3.68;;;;;;;14.00;97.72;95539.67;127718;1096;31458;-83
2021/08/06 09:34:28;;;;;;;4.90;3.28;;;;;;;13.98;97.70;95548.00;127884;1096;25503;-83
2021/08/06 09:37:11;;;;;;;3.33;2.98;;;;;;;13.93;97.41;95540.18;127645;1095;25266;-83
2021/08/06 09:39:47;;;;;;;2.63;2.43;;;;;;;13.90;97.76;95519.52;127615;1095;27280;-84
2021/08/06 09:42:22;;;;;;;3.58;3.20;;;;;;;13.91;97.68;95537.06;127785;1096;24416;-83
2021/08/06 09:45:02;;;;;;;2.50;2.30;;;;;;;13.94;98.00;95537.22;127829;1096;26015;-84
2021/08/06 09:47:37;;;;;;;2.78;2.53;;;;;;;13.96;97.75;95547.55;127880;1095;26302;-83
2021/08/06 09:50:14;;;;;;;3.53;2.93;;;;;;;13.97;97.61;95549.11;127741;1096;31157;-84
2021/08/06 09:52:51;;;;;;;3.10;2.63;;;;;;;13.98;97.89;95560.54;127806;1095;25450;-83
2021/08/06 09:55:26;;;;;;;4.75;3.10;;;;;;;14.03;97.68;95555.00;127825;1095;26810;-84
2021/08/06 09:57:59;;;;;;;3.80;3.08;;;;;;;14.04;96.99;95552.02;127817;1096;53587;-84
2021/08/06 10:00:31;;;;;;;4.40;3.60;;;;;;;14.03;97.19;95553.13;127730;1096;23680;-83
2021/08/06 10:03:02;;;;;;;3.87;2.90;;;;;;;14.01;96.87;95557.22;127820;1096;26837;-83
2021/08/06 10:05:35;;;;;;;3.78;3.23;;;;;;;14.00;96.70;95555.66;127766;1096;24006;-84
2021/08/06 10:08:07;;;;;;;3.43;3.13;;;;;;;13.99;96.81;95554.88;127781;1095;24763;-83
2021/08/06 10:10:39;;;;;;;3.20;2.80;;;;;;;13.97;96.63;95562.42;127749;1096;26597;-83
2021/08/06 10:13:10;;;;;;;3.00;2.73;;;;;;;13.95;96.69;95556.65;127812;1095;34444;-84
2021/08/06 10:15:43;;;;;;;3.55;2.80;;;;;;;13.93;96.49;95558.83;127809;1096;34347;-83
2021/08/06 10:18:14;;;;;;;5.70;4.05;;;;;;;13.99;96.54;95560.22;127679;1096;29112;-84
2021/08/06 10:20:50;;;;;;;5.48;3.93;;;;;;;14.07;96.34;95563.91;127653;1095;23669;-83
2021/08/06 10:23:22;;;;;;;4.00;3.53;;;;;;;14.08;96.13;95568.94;127978;1096;23862;-84
2021/08/06 10:25:54;;;;;;;4.08;3.68;;;;;;;14.04;95.78;95570.67;127964;1096;53530;-84
2021/08/06 10:28:26;;;;;;;4.45;4.05;;;;;;;14.05;96.02;95569.56;128033;1096;48208;-84
2021/08/06 10:31:19;;;;;;;4.80;4.03;;;;;;;14.05;95.97;95580.22;128181;1096;24527;-83
2021/08/06 10:34:14;;;;;;;3.90;3.50;;;;;;;14.05;96.07;95572.22;127989;1095;30237;-83
2021/08/06 10:36:50;;;;;;;3.85;3.48;;;;;;;14.11;96.78;95578.16;127920;1095;25770;-83
2021/08/06 10:39:44;;;;;;;3.27;2.97;;;;;;;14.24;96.83;95583.23;127669;1096;23117;-84
2021/08/06 10:42:32;;;;;;;5.88;3.20;;;;;;;14.46;96.92;95589.33;127573;1095;26185;-82
2021/08/06 10:45:04;;;;;;;4.57;3.77;;;;;;;14.77;96.70;95584.32;127446;1096;24539;-83
2021/08/06 10:47:54;;;;;;;4.00;3.70;;;;;;;15.09;94.63;95571.28;127537;1096;37035;-83
2021/08/06 10:50:26;;;;;;;4.28;3.88;;;;;;;15.44;95.19;95572.41;127521;1096;30096;-83
2021/08/06 10:53:19;;;;;;;6.88;4.10;;;;;;;15.79;95.45;95573.88;127484;1097;28827;-84
2021/08/06 10:56:11;;;;;;;4.08;3.68;;;;;;;16.10;93.32;95568.68;127558;1096;28340;-85
2021/08/06 10:59:00;;;;;;;4.60;3.38;;;;;;;16.31;92.84;95573.84;127565;1096;29200;-84
2021/08/06 11:01:46;;;;;;;4.68;3.08;;;;;;;16.37;89.95;95574.39;127577;1095;23421;-83
2021/08/06 11:04:47;;;;;;;4.15;2.73;;;;;;;16.27;88.04;95578.32;127584;1096;28003;-84
2021/08/06 11:07:37;;;;;;;3.23;2.73;;;;;;;16.07;87.08;95573.94;127581;1095;33454;-84
2021/08/06 11:10:29;;;;;;;4.95;2.48;;;;;;;15.97;86.38;95581.30;127494;1096;27578;-84
2021/08/06 11:13:00;;;;;;;2.45;2.15;;;;;;;15.91;85.54;95576.53;127462;1097;30234;-82
2021/08/06 11:16:08;;;;;;;2.18;1.98;;;;;;;15.90;85.25;95567.70;127459;1096;25183;-82
2021/08/06 11:18:44;;;;;;;2.35;2.05;;;;;;;16.02;85.15;95572.25;127546;1096;25567;-84
2021/08/06 11:21:18;;;;;;;4.28;2.63;;;;;;;16.09;84.16;95577.05;127441;1096;28916;-83
2021/08/06 11:24:07;;;;;;;2.83;2.45;;;;;;;16.12;84.22;95576.36;127512;1096;24010;-83
2021/08/06 11:26:38;;;;;;;3.73;2.60;;;;;;;16.16;83.52;95574.56;127486;1095;26656;-83
2021/08/06 11:29:16;;;;;;;2.85;2.58;;;;;;;16.20;83.56;95583.48;127590;1095;23650;-85
2021/08/06 11:31:59;;;;;;;4.00;2.68;;;;;;;16.24;84.10;95581.68;127641;1096;24414;-84
2021/08/06 11:34:30;;;;;;;2.95;2.65;;;;;;;16.19;82.93;95569.33;127500;1096;24630;-83
2021/08/06 11:37:03;;;;;;;3.80;2.97;;;;;;;15.99;83.17;95584.41;127543;1096;26894;-85
2021/08/06 11:39:34;;;;;;;3.07;2.53;;;;;;;15.89;83.17;95598.22;127461;1096;23090;-83
2021/08/06 11:42:10;;;;;;;3.65;2.80;;;;;;;15.84;84.64;95598.47;127529;1096;27669;-83
2021/08/06 11:44:56;;;;;;;3.98;3.20;;;;;;;15.75;83.99;95600.47;127508;1096;26001;-82
2021/08/06 11:47:46;;;;;;;2.85;2.55;;;;;;;15.79;84.90;95609.39;127632;1096;29345;-83
2021/08/06 11:50:20;;;;;;;3.05;2.53;;;;;;;15.57;84.12;95599.13;127555;1096;25451;-83
2021/08/06 11:52:52;;;;;;;2.50;2.15;;;;;;;15.31;84.92;95607.45;127585;1096;27313;-83